sensor_id;sensor_type;location;lat;lon;timestamp;temperature;humidity
4509;DHT22;2267;48.816;9.230;2023-02-28T00:01:18;3.10;72.20
4509;DHT22;2267;48.816;9.230;2023-02-28T00:03:45;3.10;72.20
4509;DHT22;2267;48.816;9.230;2023-02-28T00:06:12;3.00;72.50
4509;DHT22;2267;48.816;9.230;2023-02-28T00:08:39;3.00;72.70
4509;DHT22;2267;48.816;9.230;2023-02-28T00:11:11;3.00;72.80
4509;DHT22;2267;48.816;9.230;2023-02-28T00:13:41;3.00;72.90
4509;DHT22;2267;48.816;9.230;2023-02-28T00:16:11;3.00;72.90
4509;DHT22;2267;48.816;9.230;2023-02-28T00:18:39;2.90;73.00
4509;DHT22;2267;48.816;9.230;2023-02-28T00:21:07;2.90;73.00
4509;DHT22;2267;48.816;9.230;2023-02-28T00:23:35;2.90;73.10
4509;DHT22;2267;48.816;9.230;2023-02-28T00:26:02;2.90;73.40
4509;DHT22;2267;48.816;9.230;2023-02-28T00:28:29;2.90;73.30
4509;DHT22;2267;48.816;9.230;2023-02-28T00:30:55;2.90;73.30
4509;DHT22;2267;48.816;9.230;2023-02-28T00:33:24;2.90;73.40
4509;DHT22;2267;48.816;9.230;2023-02-28T00:35:50;2.90;73.50
4509;DHT22;2267;48.816;9.230;2023-02-28T00:38:17;2.90;73.90
4509;DHT22;2267;48.816;9.230;2023-02-28T00:40:44;2.90;73.90
4509;DHT22;2267;48.816;9.230;2023-02-28T00:43:11;2.90;73.80
4509;DHT22;2267;48.816;9.230;2023-02-28T00:45:38;2.80;73.80
4509;DHT22;2267;48.816;9.230;2023-02-28T00:48:05;2.90;74.00
4509;DHT22;2267;48.816;9.230;2023-02-28T00:50:32;2.80;74.00
4509;DHT22;2267;48.816;9.230;2023-02-28T00:52:59;2.80;74.20
4509;DHT22;2267;48.816;9.230;2023-02-28T00:55:26;2.80;74.90
4509;DHT22;2267;48.816;9.230;2023-02-28T00:57:53;2.80;74.80
4509;DHT22;2267;48.816;9.230;2023-02-28T01:00:20;2.70;74.90
4509;DHT22;2267;48.816;9.230;2023-02-28T01:02:46;2.70;74.80
4509;DHT22;2267;48.816;9.230;2023-02-28T01:05:13;4.40;76.60
4509;DHT22;2267;48.816;9.230;2023-02-28T01:07:40;2.70;75.00
4509;DHT22;2267;48.816;9.230;2023-02-28T01:10:08;2.70;75.30
4509;DHT22;2267;48.816;9.230;2023-02-28T01:12:35;2.70;75.40
4509;DHT22;2267;48.816;9.230;2023-02-28T01:15:01;2.70;75.40
4509;DHT22;2267;48.816;9.230;2023-02-28T01:17:28;2.60;75.60
4509;DHT22;2267;48.816;9.230;2023-02-28T01:19:55;2.60;75.60
4509;DHT22;2267;48.816;9.230;2023-02-28T01:22:22;2.60;75.90
4509;DHT22;2267;48.816;9.230;2023-02-28T01:24:49;2.60;76.00
4509;DHT22;2267;48.816;9.230;2023-02-28T01:27:16;2.60;76.20
4509;DHT22;2267;48.816;9.230;2023-02-28T01:29:43;2.60;76.30
4509;DHT22;2267;48.816;9.230;2023-02-28T01:32:10;2.50;76.50
4509;DHT22;2267;48.816;9.230;2023-02-28T01:34:36;2.50;76.60
4509;DHT22;2267;48.816;9.230;2023-02-28T01:37:03;2.50;76.80
4509;DHT22;2267;48.816;9.230;2023-02-28T01:39:30;2.50;76.90
4509;DHT22;2267;48.816;9.230;2023-02-28T01:41:57;2.50;77.10
4509;DHT22;2267;48.816;9.230;2023-02-28T01:45:00;2.40;77.10
4509;DHT22;2267;48.816;9.230;2023-02-28T01:47:39;2.40;77.40
4509;DHT22;2267;48.816;9.230;2023-02-28T01:50:21;2.40;77.50
4509;DHT22;2267;48.816;9.230;2023-02-28T01:52:49;2.40;77.80
4509;DHT22;2267;48.816;9.230;2023-02-28T01:55:18;2.40;78.20
4509;DHT22;2267;48.816;9.230;2023-02-28T01:57:50;2.40;78.30
4509;DHT22;2267;48.816;9.230;2023-02-28T02:00:21;2.40;78.50
4509;DHT22;2267;48.816;9.230;2023-02-28T02:02:52;2.40;78.70
4509;DHT22;2267;48.816;9.230;2023-02-28T02:05:23;2.40;78.90
4509;DHT22;2267;48.816;9.230;2023-02-28T02:07:54;2.40;79.00
4509;DHT22;2267;48.816;9.230;2023-02-28T02:10:29;2.40;79.30
4509;DHT22;2267;48.816;9.230;2023-02-28T02:24:11;2.30;80.00
4509;DHT22;2267;48.816;9.230;2023-02-28T02:36:06;2.30;80.60
4509;DHT22;2267;48.816;9.230;2023-02-28T02:44:58;2.30;81.30
4509;DHT22;2267;48.816;9.230;2023-02-28T02:47:09;2.30;81.50
4509;DHT22;2267;48.816;9.230;2023-02-28T02:49:38;2.20;81.70
4509;DHT22;2267;48.816;9.230;2023-02-28T02:52:10;2.20;81.90
4509;DHT22;2267;48.816;9.230;2023-02-28T02:54:41;2.20;82.10
4509;DHT22;2267;48.816;9.230;2023-02-28T02:57:14;2.20;82.20
4509;DHT22;2267;48.816;9.230;2023-02-28T02:59:43;2.20;82.50
4509;DHT22;2267;48.816;9.230;2023-02-28T03:02:13;2.20;82.70
4509;DHT22;2267;48.816;9.230;2023-02-28T03:04:48;2.20;82.70
4509;DHT22;2267;48.816;9.230;2023-02-28T03:07:18;2.20;82.70
4509;DHT22;2267;48.816;9.230;2023-02-28T03:09:52;2.20;83.10
4509;DHT22;2267;48.816;9.230;2023-02-28T03:12:20;2.20;83.10
4509;DHT22;2267;48.816;9.230;2023-02-28T03:15:18;2.20;83.50
4509;DHT22;2267;48.816;9.230;2023-02-28T03:17:55;2.20;83.70
4509;DHT22;2267;48.816;9.230;2023-02-28T03:23:19;2.20;83.80
4509;DHT22;2267;48.816;9.230;2023-02-28T03:26:05;2.30;84.20
4509;DHT22;2267;48.816;9.230;2023-02-28T03:29:08;2.20;84.60
4509;DHT22;2267;48.816;9.230;2023-02-28T03:31:46;2.20;84.60
4509;DHT22;2267;48.816;9.230;2023-02-28T03:36:59;2.30;84.60
4509;DHT22;2267;48.816;9.230;2023-02-28T03:42:08;2.20;84.90
4509;DHT22;2267;48.816;9.230;2023-02-28T03:44:42;2.20;85.20
4509;DHT22;2267;48.816;9.230;2023-02-28T03:47:22;2.20;85.10
4509;DHT22;2267;48.816;9.230;2023-02-28T03:50:14;2.20;85.30
4509;DHT22;2267;48.816;9.230;2023-02-28T03:52:53;2.30;85.70
4509;DHT22;2267;48.816;9.230;2023-02-28T03:59:04;2.30;85.50
4509;DHT22;2267;48.816;9.230;2023-02-28T04:01:35;2.30;85.70
4509;DHT22;2267;48.816;9.230;2023-02-28T04:04:03;2.30;85.80
4509;DHT22;2267;48.816;9.230;2023-02-28T04:06:31;2.30;85.80
4509;DHT22;2267;48.816;9.230;2023-02-28T04:08:59;2.30;85.70
4509;DHT22;2267;48.816;9.230;2023-02-28T04:11:51;2.30;85.90
4509;DHT22;2267;48.816;9.230;2023-02-28T04:14:18;2.30;86.00
4509;DHT22;2267;48.816;9.230;2023-02-28T04:16:45;2.30;86.20
4509;DHT22;2267;48.816;9.230;2023-02-28T04:19:13;2.30;86.20
4509;DHT22;2267;48.816;9.230;2023-02-28T04:21:49;2.30;86.50
4509;DHT22;2267;48.816;9.230;2023-02-28T04:24:19;2.30;86.90
4509;DHT22;2267;48.816;9.230;2023-02-28T04:26:49;2.30;86.90
4509;DHT22;2267;48.816;9.230;2023-02-28T04:29:25;2.30;87.10
4509;DHT22;2267;48.816;9.230;2023-02-28T04:31:53;2.30;87.20
4509;DHT22;2267;48.816;9.230;2023-02-28T04:34:21;2.30;87.10
4509;DHT22;2267;48.816;9.230;2023-02-28T04:36:48;2.30;87.20
4509;DHT22;2267;48.816;9.230;2023-02-28T04:39:38;2.30;87.30
4509;DHT22;2267;48.816;9.230;2023-02-28T04:42:05;2.30;87.50
4509;DHT22;2267;48.816;9.230;2023-02-28T04:44:32;2.30;88.00
4509;DHT22;2267;48.816;9.230;2023-02-28T04:46:59;2.30;87.60
4509;DHT22;2267;48.816;9.230;2023-02-28T04:49:26;2.30;88.00
4509;DHT22;2267;48.816;9.230;2023-02-28T04:51:53;2.30;88.00
4509;DHT22;2267;48.816;9.230;2023-02-28T04:54:20;2.30;88.00
4509;DHT22;2267;48.816;9.230;2023-02-28T04:56:47;2.30;87.90
4509;DHT22;2267;48.816;9.230;2023-02-28T04:59:16;2.30;87.90
4509;DHT22;2267;48.816;9.230;2023-02-28T05:01:47;2.30;88.00
4509;DHT22;2267;48.816;9.230;2023-02-28T05:04:15;2.30;88.10
4509;DHT22;2267;48.816;9.230;2023-02-28T05:06:42;2.30;88.10
4509;DHT22;2267;48.816;9.230;2023-02-28T05:09:09;2.30;88.10
4509;DHT22;2267;48.816;9.230;2023-02-28T05:11:38;2.30;88.00
4509;DHT22;2267;48.816;9.230;2023-02-28T05:14:11;2.30;88.20
4509;DHT22;2267;48.816;9.230;2023-02-28T05:16:38;2.30;88.30
4509;DHT22;2267;48.816;9.230;2023-02-28T05:19:05;2.30;88.30
4509;DHT22;2267;48.816;9.230;2023-02-28T05:21:40;2.30;88.60
4509;DHT22;2267;48.816;9.230;2023-02-28T05:24:10;2.30;88.60
4509;DHT22;2267;48.816;9.230;2023-02-28T05:26:40;2.30;89.00
4509;DHT22;2267;48.816;9.230;2023-02-28T05:29:08;2.30;88.90
4509;DHT22;2267;48.816;9.230;2023-02-28T05:31:36;2.30;88.80
4509;DHT22;2267;48.816;9.230;2023-02-28T05:34:03;2.30;89.10
4509;DHT22;2267;48.816;9.230;2023-02-28T05:36:33;2.30;89.20
4509;DHT22;2267;48.816;9.230;2023-02-28T05:39:00;2.30;89.40
4509;DHT22;2267;48.816;9.230;2023-02-28T05:41:26;2.40;89.50
4509;DHT22;2267;48.816;9.230;2023-02-28T05:43:54;2.40;89.50
4509;DHT22;2267;48.816;9.230;2023-02-28T05:46:21;2.40;89.60
4509;DHT22;2267;48.816;9.230;2023-02-28T05:48:48;2.40;89.70
4509;DHT22;2267;48.816;9.230;2023-02-28T05:51:16;2.40;89.70
4509;DHT22;2267;48.816;9.230;2023-02-28T05:53:43;2.40;89.70
4509;DHT22;2267;48.816;9.230;2023-02-28T05:56:09;2.30;89.80
4509;DHT22;2267;48.816;9.230;2023-02-28T05:58:36;2.30;89.90
4509;DHT22;2267;48.816;9.230;2023-02-28T06:03:47;2.30;90.10
4509;DHT22;2267;48.816;9.230;2023-02-28T06:06:13;2.30;89.80
4509;DHT22;2267;48.816;9.230;2023-02-28T06:08:40;2.30;90.00
4509;DHT22;2267;48.816;9.230;2023-02-28T06:11:09;2.30;89.10
4509;DHT22;2267;48.816;9.230;2023-02-28T06:13:36;2.30;89.80
4509;DHT22;2267;48.816;9.230;2023-02-28T06:16:03;2.30;90.00
4509;DHT22;2267;48.816;9.230;2023-02-28T06:18:30;2.40;90.00
4509;DHT22;2267;48.816;9.230;2023-02-28T06:20:57;2.40;90.00
4509;DHT22;2267;48.816;9.230;2023-02-28T06:23:24;2.40;90.00
4509;DHT22;2267;48.816;9.230;2023-02-28T06:25:50;2.50;90.40
4509;DHT22;2267;48.816;9.230;2023-02-28T06:28:19;2.40;90.30
4509;DHT22;2267;48.816;9.230;2023-02-28T06:30:46;2.40;90.30
4509;DHT22;2267;48.816;9.230;2023-02-28T06:33:12;2.40;90.20
4509;DHT22;2267;48.816;9.230;2023-02-28T06:35:39;2.40;90.10
4509;DHT22;2267;48.816;9.230;2023-02-28T06:38:06;2.40;90.20
4509;DHT22;2267;48.816;9.230;2023-02-28T06:40:33;2.40;90.20
4509;DHT22;2267;48.816;9.230;2023-02-28T06:43:02;2.40;90.20
4509;DHT22;2267;48.816;9.230;2023-02-28T06:45:29;2.40;90.20
4509;DHT22;2267;48.816;9.230;2023-02-28T06:47:56;2.40;90.20
4509;DHT22;2267;48.816;9.230;2023-02-28T06:50:23;2.40;90.20
4509;DHT22;2267;48.816;9.230;2023-02-28T06:52:50;2.40;90.20
4509;DHT22;2267;48.816;9.230;2023-02-28T06:55:20;2.40;90.30
4509;DHT22;2267;48.816;9.230;2023-02-28T06:57:47;2.40;90.40
4509;DHT22;2267;48.816;9.230;2023-02-28T07:00:14;2.40;90.40
4509;DHT22;2267;48.816;9.230;2023-02-28T07:02:41;2.40;90.40
4509;DHT22;2267;48.816;9.230;2023-02-28T07:05:08;2.40;90.70
4509;DHT22;2267;48.816;9.230;2023-02-28T07:07:35;2.40;90.50
4509;DHT22;2267;48.816;9.230;2023-02-28T07:10:04;2.40;90.40
4509;DHT22;2267;48.816;9.230;2023-02-28T07:12:32;2.40;90.50
4509;DHT22;2267;48.816;9.230;2023-02-28T07:14:59;2.40;90.50
4509;DHT22;2267;48.816;9.230;2023-02-28T07:17:25;2.50;90.60
4509;DHT22;2267;48.816;9.230;2023-02-28T07:19:52;2.50;90.60
4509;DHT22;2267;48.816;9.230;2023-02-28T07:22:19;2.50;90.50
4509;DHT22;2267;48.816;9.230;2023-02-28T07:24:46;2.50;90.50
4509;DHT22;2267;48.816;9.230;2023-02-28T07:27:13;2.50;90.50
4509;DHT22;2267;48.816;9.230;2023-02-28T07:29:50;2.50;90.40
4509;DHT22;2267;48.816;9.230;2023-02-28T07:32:17;3.50;90.90
4509;DHT22;2267;48.816;9.230;2023-02-28T07:34:45;2.50;90.50
4509;DHT22;2267;48.816;9.230;2023-02-28T07:37:12;2.50;90.50
4509;DHT22;2267;48.816;9.230;2023-02-28T07:39:39;2.50;90.40
4509;DHT22;2267;48.816;9.230;2023-02-28T07:42:08;2.60;90.40
4509;DHT22;2267;48.816;9.230;2023-02-28T07:44:41;2.60;90.40
4509;DHT22;2267;48.816;9.230;2023-02-28T07:47:10;2.50;90.40
4509;DHT22;2267;48.816;9.230;2023-02-28T07:49:37;2.70;90.80
4509;DHT22;2267;48.816;9.230;2023-02-28T07:52:07;2.60;90.40
4509;DHT22;2267;48.816;9.230;2023-02-28T07:54:37;2.70;90.40
4509;DHT22;2267;48.816;9.230;2023-02-28T07:57:04;2.70;90.40
4509;DHT22;2267;48.816;9.230;2023-02-28T07:59:30;2.70;90.40
4509;DHT22;2267;48.816;9.230;2023-02-28T08:01:58;2.70;90.40
4509;DHT22;2267;48.816;9.230;2023-02-28T08:04:26;2.70;90.40
4509;DHT22;2267;48.816;9.230;2023-02-28T08:06:52;2.70;90.40
4509;DHT22;2267;48.816;9.230;2023-02-28T08:09:20;2.70;90.40
4509;DHT22;2267;48.816;9.230;2023-02-28T08:11:47;2.70;90.20
4509;DHT22;2267;48.816;9.230;2023-02-28T08:14:13;2.70;90.20
4509;DHT22;2267;48.816;9.230;2023-02-28T08:16:40;2.70;90.20
4509;DHT22;2267;48.816;9.230;2023-02-28T08:19:07;2.80;90.40
4509;DHT22;2267;48.816;9.230;2023-02-28T08:21:34;2.70;90.20
4509;DHT22;2267;48.816;9.230;2023-02-28T08:24:01;2.70;90.30
4509;DHT22;2267;48.816;9.230;2023-02-28T08:26:28;2.80;90.30
4509;DHT22;2267;48.816;9.230;2023-02-28T08:28:55;2.80;90.30
4509;DHT22;2267;48.816;9.230;2023-02-28T08:31:23;2.80;90.40
4509;DHT22;2267;48.816;9.230;2023-02-28T08:33:50;2.80;90.40
4509;DHT22;2267;48.816;9.230;2023-02-28T08:36:19;2.80;89.90
4509;DHT22;2267;48.816;9.230;2023-02-28T08:38:46;2.80;89.70
4509;DHT22;2267;48.816;9.230;2023-02-28T08:41:13;2.80;90.00
4509;DHT22;2267;48.816;9.230;2023-02-28T08:43:40;2.80;89.90
4509;DHT22;2267;48.816;9.230;2023-02-28T08:46:08;2.90;89.60
4509;DHT22;2267;48.816;9.230;2023-02-28T08:48:37;2.90;88.00
4509;DHT22;2267;48.816;9.230;2023-02-28T08:51:18;2.80;88.60
4509;DHT22;2267;48.816;9.230;2023-02-28T08:53:47;2.90;88.70
4509;DHT22;2267;48.816;9.230;2023-02-28T08:56:17;2.80;87.70
4509;DHT22;2267;48.816;9.230;2023-02-28T08:58:46;2.90;88.20
4509;DHT22;2267;48.816;9.230;2023-02-28T09:03:41;2.90;87.80
4509;DHT22;2267;48.816;9.230;2023-02-28T09:06:09;2.90;87.40
4509;DHT22;2267;48.816;9.230;2023-02-28T09:08:37;2.90;88.40
4509;DHT22;2267;48.816;9.230;2023-02-28T09:11:04;2.90;87.50
4509;DHT22;2267;48.816;9.230;2023-02-28T09:13:32;2.90;86.80
4509;DHT22;2267;48.816;9.230;2023-02-28T09:16:01;2.90;86.90
4509;DHT22;2267;48.816;9.230;2023-02-28T09:18:28;2.90;86.60
4509;DHT22;2267;48.816;9.230;2023-02-28T09:20:55;2.80;86.40
4509;DHT22;2267;48.816;9.230;2023-02-28T09:23:23;2.90;86.50
4509;DHT22;2267;48.816;9.230;2023-02-28T09:25:52;2.90;86.80
4509;DHT22;2267;48.816;9.230;2023-02-28T09:28:20;2.90;86.50
4509;DHT22;2267;48.816;9.230;2023-02-28T09:30:49;2.90;86.20
4509;DHT22;2267;48.816;9.230;2023-02-28T09:33:17;2.90;86.20
4509;DHT22;2267;48.816;9.230;2023-02-28T09:35:49;2.90;86.20
4509;DHT22;2267;48.816;9.230;2023-02-28T09:38:17;2.80;86.40
4509;DHT22;2267;48.816;9.230;2023-02-28T09:40:51;2.90;86.40
4509;DHT22;2267;48.816;9.230;2023-02-28T09:43:24;2.90;86.20
4509;DHT22;2267;48.816;9.230;2023-02-28T09:46:14;2.90;86.20
4509;DHT22;2267;48.816;9.230;2023-02-28T09:48:47;2.90;85.80
4509;DHT22;2267;48.816;9.230;2023-02-28T09:54:02;2.90;85.90
4509;DHT22;2267;48.816;9.230;2023-02-28T09:56:40;3.00;85.80
4509;DHT22;2267;48.816;9.230;2023-02-28T10:01:57;3.00;86.10
4509;DHT22;2267;48.816;9.230;2023-02-28T10:12:53;3.10;85.50
4509;DHT22;2267;48.816;9.230;2023-02-28T10:15:24;3.10;85.60
4509;DHT22;2267;48.816;9.230;2023-02-28T10:17:58;3.20;86.00
4509;DHT22;2267;48.816;9.230;2023-02-28T10:20:38;3.20;86.40
4509;DHT22;2267;48.816;9.230;2023-02-28T10:25:38;3.30;85.20
4509;DHT22;2267;48.816;9.230;2023-02-28T10:30:48;3.20;84.90
4509;DHT22;2267;48.816;9.230;2023-02-28T10:33:32;3.30;85.10
4509;DHT22;2267;48.816;9.230;2023-02-28T10:36:01;3.30;85.20
4509;DHT22;2267;48.816;9.230;2023-02-28T10:38:34;3.30;85.60
4509;DHT22;2267;48.816;9.230;2023-02-28T10:43:38;3.40;84.60
4509;DHT22;2267;48.816;9.230;2023-02-28T10:48:44;3.50;84.90
4509;DHT22;2267;48.816;9.230;2023-02-28T10:51:13;3.60;84.80
4509;DHT22;2267;48.816;9.230;2023-02-28T10:56:26;3.70;84.40
4509;DHT22;2267;48.816;9.230;2023-02-28T10:58:55;3.80;84.80
4509;DHT22;2267;48.816;9.230;2023-02-28T11:03:59;4.10;85.00
4509;DHT22;2267;48.816;9.230;2023-02-28T11:06:33;4.40;84.80
4509;DHT22;2267;48.816;9.230;2023-02-28T11:09:39;4.70;84.50
4509;DHT22;2267;48.816;9.230;2023-02-28T11:11:59;4.80;82.70
4509;DHT22;2267;48.816;9.230;2023-02-28T11:14:29;5.00;82.00
4509;DHT22;2267;48.816;9.230;2023-02-28T11:17:02;5.20;82.00
4509;DHT22;2267;48.816;9.230;2023-02-28T11:19:45;5.40;81.30
4509;DHT22;2267;48.816;9.230;2023-02-28T11:22:19;5.60;80.50
4509;DHT22;2267;48.816;9.230;2023-02-28T11:24:51;5.80;79.70
4509;DHT22;2267;48.816;9.230;2023-02-28T11:29:52;6.10;79.20
4509;DHT22;2267;48.816;9.230;2023-02-28T11:32:22;6.30;78.20
4509;DHT22;2267;48.816;9.230;2023-02-28T11:35:03;6.40;78.20
4509;DHT22;2267;48.816;9.230;2023-02-28T11:37:31;6.50;77.20
4509;DHT22;2267;48.816;9.230;2023-02-28T11:39:58;6.50;76.70
4509;DHT22;2267;48.816;9.230;2023-02-28T11:45:21;6.70;76.80
4509;DHT22;2267;48.816;9.230;2023-02-28T11:48:05;6.90;75.90
4509;DHT22;2267;48.816;9.230;2023-02-28T11:53:22;7.10;75.80
4509;DHT22;2267;48.816;9.230;2023-02-28T12:00:58;7.30;73.40
4509;DHT22;2267;48.816;9.230;2023-02-28T12:11:38;7.90;73.60
4509;DHT22;2267;48.816;9.230;2023-02-28T12:27:20;8.70;70.40
4509;DHT22;2267;48.816;9.230;2023-02-28T12:30:02;8.80;70.80
4509;DHT22;2267;48.816;9.230;2023-02-28T12:32:41;8.90;70.60
4509;DHT22;2267;48.816;9.230;2023-02-28T12:41:33;9.40;69.00
4509;DHT22;2267;48.816;9.230;2023-02-28T12:43:46;9.40;68.80
4509;DHT22;2267;48.816;9.230;2023-02-28T12:46:24;9.60;69.40
4509;DHT22;2267;48.816;9.230;2023-02-28T12:48:57;9.70;68.80
4509;DHT22;2267;48.816;9.230;2023-02-28T12:51:26;9.90;68.40
4509;DHT22;2267;48.816;9.230;2023-02-28T12:57:16;10.20;66.90
4509;DHT22;2267;48.816;9.230;2023-02-28T12:59:49;10.30;66.40
4509;DHT22;2267;48.816;9.230;2023-02-28T13:10:09;10.60;64.30
4509;DHT22;2267;48.816;9.230;2023-02-28T13:12:50;10.60;62.10
4509;DHT22;2267;48.816;9.230;2023-02-28T13:15:24;10.30;60.90
4509;DHT22;2267;48.816;9.230;2023-02-28T13:17:54;10.30;62.40
4509;DHT22;2267;48.816;9.230;2023-02-28T13:20:36;10.50;63.50
4509;DHT22;2267;48.816;9.230;2023-02-28T13:23:03;10.70;63.10
4509;DHT22;2267;48.816;9.230;2023-02-28T13:25:52;10.80;63.50
4509;DHT22;2267;48.816;9.230;2023-02-28T13:31:15;10.70;60.90
4509;DHT22;2267;48.816;9.230;2023-02-28T13:36:27;10.80;61.90
4509;DHT22;2267;48.816;9.230;2023-02-28T13:39:02;10.80;61.50
4509;DHT22;2267;48.816;9.230;2023-02-28T13:44:17;10.90;60.60
4509;DHT22;2267;48.816;9.230;2023-02-28T13:57:09;10.60;60.10
4509;DHT22;2267;48.816;9.230;2023-02-28T14:05:29;10.30;61.10
4509;DHT22;2267;48.816;9.230;2023-02-28T14:08:03;10.40;60.60
4509;DHT22;2267;48.816;9.230;2023-02-28T14:10:35;10.30;60.40
4509;DHT22;2267;48.816;9.230;2023-02-28T14:16:02;10.10;61.20
4509;DHT22;2267;48.816;9.230;2023-02-28T14:18:37;10.20;61.10
4509;DHT22;2267;48.816;9.230;2023-02-28T14:29:34;10.20;61.90
4509;DHT22;2267;48.816;9.230;2023-02-28T14:37:32;10.30;62.00
4509;DHT22;2267;48.816;9.230;2023-02-28T14:40:00;10.30;62.40
4509;DHT22;2267;48.816;9.230;2023-02-28T14:42:33;10.20;62.50
4509;DHT22;2267;48.816;9.230;2023-02-28T14:45:01;10.20;62.10
4509;DHT22;2267;48.816;9.230;2023-02-28T14:47:31;10.10;61.40
4509;DHT22;2267;48.816;9.230;2023-02-28T14:50:00;9.90;62.50
4509;DHT22;2267;48.816;9.230;2023-02-28T14:52:29;9.80;63.60
4509;DHT22;2267;48.816;9.230;2023-02-28T14:55:01;9.80;63.80
4509;DHT22;2267;48.816;9.230;2023-02-28T14:57:32;9.70;63.90
4509;DHT22;2267;48.816;9.230;2023-02-28T15:00:09;9.60;63.20
4509;DHT22;2267;48.816;9.230;2023-02-28T15:02:39;9.40;63.40
4509;DHT22;2267;48.816;9.230;2023-02-28T15:07:39;9.10;64.10
4509;DHT22;2267;48.816;9.230;2023-02-28T15:10:26;9.00;64.40
4509;DHT22;2267;48.816;9.230;2023-02-28T15:15:45;8.80;65.00
4509;DHT22;2267;48.816;9.230;2023-02-28T15:21:12;8.70;66.10
4509;DHT22;2267;48.816;9.230;2023-02-28T15:23:44;8.70;66.50
4509;DHT22;2267;48.816;9.230;2023-02-28T15:26:15;8.60;66.50
4509;DHT22;2267;48.816;9.230;2023-02-28T15:28:44;8.50;66.80
4509;DHT22;2267;48.816;9.230;2023-02-28T15:31:25;8.50;67.10
4509;DHT22;2267;48.816;9.230;2023-02-28T15:33:55;8.40;66.80
4509;DHT22;2267;48.816;9.230;2023-02-28T15:36:26;8.40;67.00
4509;DHT22;2267;48.816;9.230;2023-02-28T15:38:55;8.40;66.90
4509;DHT22;2267;48.816;9.230;2023-02-28T15:41:37;8.20;66.70
4509;DHT22;2267;48.816;9.230;2023-02-28T15:44:27;8.20;67.10
4509;DHT22;2267;48.816;9.230;2023-02-28T15:47:02;8.20;67.70
4509;DHT22;2267;48.816;9.230;2023-02-28T15:49:54;8.10;67.70
4509;DHT22;2267;48.816;9.230;2023-02-28T15:52:37;8.10;68.00
4509;DHT22;2267;48.816;9.230;2023-02-28T15:55:09;8.10;67.60
4509;DHT22;2267;48.816;9.230;2023-02-28T15:57:39;8.00;67.90
4509;DHT22;2267;48.816;9.230;2023-02-28T16:00:13;8.10;68.20
4509;DHT22;2267;48.816;9.230;2023-02-28T16:02:40;7.90;67.90
4509;DHT22;2267;48.816;9.230;2023-02-28T16:07:43;7.90;68.50
4509;DHT22;2267;48.816;9.230;2023-02-28T16:10:12;7.80;68.30
4509;DHT22;2267;48.816;9.230;2023-02-28T16:12:41;7.80;68.80
4509;DHT22;2267;48.816;9.230;2023-02-28T16:15:20;7.80;69.30
4509;DHT22;2267;48.816;9.230;2023-02-28T16:17:48;7.70;69.40
4509;DHT22;2267;48.816;9.230;2023-02-28T16:20:28;7.80;69.60
4509;DHT22;2267;48.816;9.230;2023-02-28T16:22:55;7.70;69.60
4509;DHT22;2267;48.816;9.230;2023-02-28T16:25:32;7.70;69.70
4509;DHT22;2267;48.816;9.230;2023-02-28T16:28:00;7.70;70.00
4509;DHT22;2267;48.816;9.230;2023-02-28T16:30:28;7.70;69.60
4509;DHT22;2267;48.816;9.230;2023-02-28T16:32:58;7.70;69.60
4509;DHT22;2267;48.816;9.230;2023-02-28T16:35:25;7.60;69.20
4509;DHT22;2267;48.816;9.230;2023-02-28T16:37:53;7.50;69.60
4509;DHT22;2267;48.816;9.230;2023-02-28T16:40:25;7.50;69.90
4509;DHT22;2267;48.816;9.230;2023-02-28T16:42:54;7.60;70.40
4509;DHT22;2267;48.816;9.230;2023-02-28T16:45:24;7.60;70.40
4509;DHT22;2267;48.816;9.230;2023-02-28T16:47:52;7.50;70.10
4509;DHT22;2267;48.816;9.230;2023-02-28T16:50:21;7.50;70.10
4509;DHT22;2267;48.816;9.230;2023-02-28T16:52:49;7.40;69.90
4509;DHT22;2267;48.816;9.230;2023-02-28T16:55:19;7.40;70.10
4509;DHT22;2267;48.816;9.230;2023-02-28T16:57:53;7.30;70.50
4509;DHT22;2267;48.816;9.230;2023-02-28T17:00:21;7.40;70.60
4509;DHT22;2267;48.816;9.230;2023-02-28T17:02:48;7.30;70.50
4509;DHT22;2267;48.816;9.230;2023-02-28T17:05:15;7.30;70.90
4509;DHT22;2267;48.816;9.230;2023-02-28T17:07:42;7.30;71.50
4509;DHT22;2267;48.816;9.230;2023-02-28T17:10:24;7.30;71.80
4509;DHT22;2267;48.816;9.230;2023-02-28T17:12:51;7.30;72.00
4509;DHT22;2267;48.816;9.230;2023-02-28T17:15:22;7.30;72.20
4509;DHT22;2267;48.816;9.230;2023-02-28T17:17:49;7.30;72.40
4509;DHT22;2267;48.816;9.230;2023-02-28T17:20:18;7.30;72.60
4509;DHT22;2267;48.816;9.230;2023-02-28T17:22:53;7.20;72.60
4509;DHT22;2267;48.816;9.230;2023-02-28T17:25:20;7.20;73.00
4509;DHT22;2267;48.816;9.230;2023-02-28T17:27:47;7.20;73.50
4509;DHT22;2267;48.816;9.230;2023-02-28T17:30:18;7.20;73.70
4509;DHT22;2267;48.816;9.230;2023-02-28T17:32:45;7.10;73.90
4509;DHT22;2267;48.816;9.230;2023-02-28T17:35:12;7.10;74.30
4509;DHT22;2267;48.816;9.230;2023-02-28T17:37:40;7.10;74.40
4509;DHT22;2267;48.816;9.230;2023-02-28T17:40:14;7.00;74.50
4509;DHT22;2267;48.816;9.230;2023-02-28T17:42:41;7.00;74.70
4509;DHT22;2267;48.816;9.230;2023-02-28T17:45:09;7.00;74.80
4509;DHT22;2267;48.816;9.230;2023-02-28T17:47:36;6.90;74.90
4509;DHT22;2267;48.816;9.230;2023-02-28T17:50:03;6.90;75.90
4509;DHT22;2267;48.816;9.230;2023-02-28T17:52:30;6.90;75.20
4509;DHT22;2267;48.816;9.230;2023-02-28T17:54:57;6.80;75.40
4509;DHT22;2267;48.816;9.230;2023-02-28T17:57:24;6.80;75.50
4509;DHT22;2267;48.816;9.230;2023-02-28T17:59:51;6.80;75.70
4509;DHT22;2267;48.816;9.230;2023-02-28T18:02:18;6.70;75.60
4509;DHT22;2267;48.816;9.230;2023-02-28T18:04:44;6.70;75.90
4509;DHT22;2267;48.816;9.230;2023-02-28T18:07:11;6.60;76.20
4509;DHT22;2267;48.816;9.230;2023-02-28T18:09:38;6.60;76.20
4509;DHT22;2267;48.816;9.230;2023-02-28T18:12:05;6.60;76.40
4509;DHT22;2267;48.816;9.230;2023-02-28T18:14:32;6.60;76.50
4509;DHT22;2267;48.816;9.230;2023-02-28T18:16:59;6.50;76.70
4509;DHT22;2267;48.816;9.230;2023-02-28T18:19:25;6.50;76.60
4509;DHT22;2267;48.816;9.230;2023-02-28T18:21:53;6.40;76.20
4509;DHT22;2267;48.816;9.230;2023-02-28T18:24:21;6.40;76.40
4509;DHT22;2267;48.816;9.230;2023-02-28T18:26:50;6.30;76.80
4509;DHT22;2267;48.816;9.230;2023-02-28T18:29:21;6.30;76.90
4509;DHT22;2267;48.816;9.230;2023-02-28T18:31:48;6.30;76.70
4509;DHT22;2267;48.816;9.230;2023-02-28T18:34:16;6.20;77.50
4509;DHT22;2267;48.816;9.230;2023-02-28T18:36:43;6.20;77.70
4509;DHT22;2267;48.816;9.230;2023-02-28T18:39:15;6.20;78.00
4509;DHT22;2267;48.816;9.230;2023-02-28T18:41:42;6.10;78.00
4509;DHT22;2267;48.816;9.230;2023-02-28T18:44:09;6.10;78.20
4509;DHT22;2267;48.816;9.230;2023-02-28T18:46:47;6.00;78.30
4509;DHT22;2267;48.816;9.230;2023-02-28T18:49:14;6.00;78.50
4509;DHT22;2267;48.816;9.230;2023-02-28T18:51:41;6.00;78.90
4509;DHT22;2267;48.816;9.230;2023-02-28T18:54:13;5.90;79.60
4509;DHT22;2267;48.816;9.230;2023-02-28T18:56:41;5.90;79.00
4509;DHT22;2267;48.816;9.230;2023-02-28T18:59:08;5.90;79.20
4509;DHT22;2267;48.816;9.230;2023-02-28T19:01:36;5.90;79.30
4509;DHT22;2267;48.816;9.230;2023-02-28T19:04:03;5.80;79.10
4509;DHT22;2267;48.816;9.230;2023-02-28T19:06:32;5.80;79.00
4509;DHT22;2267;48.816;9.230;2023-02-28T19:09:00;5.80;79.90
4509;DHT22;2267;48.816;9.230;2023-02-28T19:11:28;5.80;79.10
4509;DHT22;2267;48.816;9.230;2023-02-28T19:13:55;5.70;79.80
4509;DHT22;2267;48.816;9.230;2023-02-28T19:16:22;5.70;78.90
4509;DHT22;2267;48.816;9.230;2023-02-28T19:18:50;5.70;79.20
4509;DHT22;2267;48.816;9.230;2023-02-28T19:21:19;5.70;79.40
4509;DHT22;2267;48.816;9.230;2023-02-28T19:23:46;5.70;79.50
4509;DHT22;2267;48.816;9.230;2023-02-28T19:26:19;5.60;79.50
4509;DHT22;2267;48.816;9.230;2023-02-28T19:28:46;5.20;79.30
4509;DHT22;2267;48.816;9.230;2023-02-28T19:31:18;5.60;79.90
4509;DHT22;2267;48.816;9.230;2023-02-28T19:33:45;5.60;79.90